sensor_id;sensor_type;location;lat;lon;timestamp;pressure;altitude;pressure_sealevel;temperature;humidity
75409;BME280;63979;55.644;37.734;2023-03-19T00:02:17;101619.28;;;-1.56;43.41
75409;BME280;63979;55.644;37.734;2023-03-19T00:07:17;101622.78;;;-1.54;43.38
75409;BME280;63979;55.644;37.734;2023-03-19T00:12:20;101631.56;;;-1.50;43.72
75409;BME280;63979;55.644;37.734;2023-03-19T00:17:21;101553.44;;;-1.97;43.68
75409;BME280;63979;55.644;37.734;2023-03-19T00:22:22;101607.03;;;-1.59;44.14
75409;BME280;63979;55.644;37.734;2023-03-19T00:27:24;101624.56;;;-1.53;43.92
75409;BME280;63979;55.644;37.734;2023-03-19T00:32:25;101610.53;;;-1.60;44.91
75409;BME280;63979;55.644;37.734;2023-03-19T00:37:26;101608.75;;;-1.64;44.46
75409;BME280;63979;55.644;37.734;2023-03-19T00:42:27;101534.13;;;-2.08;44.09
75409;BME280;63979;55.644;37.734;2023-03-19T00:47:28;101594.69;;;-1.73;45.21
75409;BME280;63979;55.644;37.734;2023-03-19T00:52:30;101605.19;;;-1.72;45.35
75409;BME280;63979;55.644;37.734;2023-03-19T00:57:31;101584.94;;;-1.86;45.01
75409;BME280;63979;55.644;37.734;2023-03-19T01:02:32;101590.19;;;-1.85;46.78
75409;BME280;63979;55.644;37.734;2023-03-19T01:07:34;101578.72;;;-1.99;46.22
75409;BME280;63979;55.644;37.734;2023-03-19T01:12:35;101575.09;;;-2.09;47.93
75409;BME280;63979;55.644;37.734;2023-03-19T01:17:36;101593.34;;;-2.13;47.89
75409;BME280;63979;55.644;37.734;2023-03-19T01:22:39;101587.28;;;-2.12;47.39
75409;BME280;63979;55.644;37.734;2023-03-19T01:27:41;101564.38;;;-2.33;48.39
75409;BME280;63979;55.644;37.734;2023-03-19T01:32:42;101582.75;;;-2.26;48.74
75409;BME280;63979;55.644;37.734;2023-03-19T01:37:43;101574.81;;;-2.35;48.38
75409;BME280;63979;55.644;37.734;2023-03-19T01:42:52;101563.38;;;-2.43;49.51
75409;BME280;63979;55.644;37.734;2023-03-19T01:47:54;101578.25;;;-2.39;49.40
75409;BME280;63979;55.644;37.734;2023-03-19T01:52:55;101577.34;;;-2.42;48.85
75409;BME280;63979;55.644;37.734;2023-03-19T01:57:56;101562.28;;;-2.60;51.29
75409;BME280;63979;55.644;37.734;2023-03-19T02:03:00;101560.50;;;-2.63;50.81
75409;BME280;63979;55.644;37.734;2023-03-19T02:08:05;101444.66;;;-3.31;51.94
75409;BME280;63979;55.644;37.734;2023-03-19T02:13:07;101545.47;;;-2.79;52.92
75409;BME280;63979;55.644;37.734;2023-03-19T02:18:08;101549.81;;;-2.81;52.05
75409;BME280;63979;55.644;37.734;2023-03-19T02:23:21;101539.28;;;-2.86;49.56
75409;BME280;63979;55.644;37.734;2023-03-19T02:28:27;101541.31;;;-2.66;49.27
75409;BME280;63979;55.644;37.734;2023-03-19T02:33:29;101466.03;;;-2.95;49.85
75409;BME280;63979;55.644;37.734;2023-03-19T02:38:32;101551.03;;;-2.55;51.10
75409;BME280;63979;55.644;37.734;2023-03-19T02:43:36;101508.00;;;-2.81;51.97
75409;BME280;63979;55.644;37.734;2023-03-19T02:48:38;101533.53;;;-2.62;51.77
75409;BME280;63979;55.644;37.734;2023-03-19T02:53:39;101537.97;;;-2.55;51.13
75409;BME280;63979;55.644;37.734;2023-03-19T02:58:40;101550.22;;;-2.49;50.61
75409;BME280;63979;55.644;37.734;2023-03-19T03:03:41;101508.97;;;-2.74;51.76
75409;BME280;63979;55.644;37.734;2023-03-19T03:08:43;101536.19;;;-2.57;51.31
75409;BME280;63979;55.644;37.734;2023-03-19T03:13:44;101535.25;;;-2.62;51.29
75409;BME280;63979;55.644;37.734;2023-03-19T03:18:45;101511.63;;;-2.71;51.32
75409;BME280;63979;55.644;37.734;2023-03-19T03:23:47;101524.72;;;-2.70;51.79
75409;BME280;63979;55.644;37.734;2023-03-19T03:28:48;101516.81;;;-2.76;51.73
75409;BME280;63979;55.644;37.734;2023-03-19T03:33:49;101493.94;;;-2.91;51.44
75409;BME280;63979;55.644;37.734;2023-03-19T03:38:50;101483.44;;;-2.97;51.66
75409;BME280;63979;55.644;37.734;2023-03-19T03:43:51;101525.56;;;-2.72;52.08
75409;BME280;63979;55.644;37.734;2023-03-19T03:48:53;101522.94;;;-2.72;51.68
75409;BME280;63979;55.644;37.734;2023-03-19T03:53:54;101500.19;;;-2.79;52.14
75409;BME280;63979;55.644;37.734;2023-03-19T03:58:55;101509.00;;;-2.73;52.52
75409;BME280;63979;55.644;37.734;2023-03-19T04:03:57;101506.44;;;-2.68;52.62
75409;BME280;63979;55.644;37.734;2023-03-19T04:08:59;101490.72;;;-2.71;51.67
75409;BME280;63979;55.644;37.734;2023-03-19T04:14:01;101503.97;;;-2.55;51.40
75409;BME280;63979;55.644;37.734;2023-03-19T04:19:03;101499.84;;;-2.36;50.27
75409;BME280;63979;55.644;37.734;2023-03-19T04:24:04;101480.75;;;-2.29;49.73
75409;BME280;63979;55.644;37.734;2023-03-19T04:29:06;101489.78;;;-1.96;48.93
75409;BME280;63979;55.644;37.734;2023-03-19T04:34:08;101497.72;;;-1.87;49.06
75409;BME280;63979;55.644;37.734;2023-03-19T04:39:09;101490.06;;;-1.67;48.59
75409;BME280;63979;55.644;37.734;2023-03-19T04:44:10;101481.25;;;-1.74;47.83
75409;BME280;63979;55.644;37.734;2023-03-19T04:49:12;101469.47;;;-1.08;46.96
75409;BME280;63979;55.644;37.734;2023-03-19T04:54:13;101469.88;;;0.02;43.79
75409;BME280;63979;55.644;37.734;2023-03-19T04:59:15;101478.56;;;-0.08;44.10
75409;BME280;63979;55.644;37.734;2023-03-19T05:04:16;101490.69;;;1.39;41.46
75409;BME280;63979;55.644;37.734;2023-03-19T05:09:17;101484.47;;;4.12;35.06
75409;BME280;63979;55.644;37.734;2023-03-19T05:14:18;101478.63;;;6.21;31.58
75409;BME280;63979;55.644;37.734;2023-03-19T05:19:19;101471.50;;;7.84;29.10
75409;BME280;63979;55.644;37.734;2023-03-19T05:24:20;101441.28;;;9.17;26.40
75409;BME280;63979;55.644;37.734;2023-03-19T05:29:21;101468.78;;;10.55;24.28
75409;BME280;63979;55.644;37.734;2023-03-19T05:34:22;101462.00;;;11.67;23.30
75409;BME280;63979;55.644;37.734;2023-03-19T05:39:24;101465.63;;;12.22;21.82
75409;BME280;63979;55.644;37.734;2023-03-19T05:44:25;101419.72;;;12.30;21.64
75409;BME280;63979;55.644;37.734;2023-03-19T05:49:27;101449.19;;;13.33;20.66
75409;BME280;63979;55.644;37.734;2023-03-19T05:54:28;101444.50;;;14.01;20.10
75409;BME280;63979;55.644;37.734;2023-03-19T05:59:29;101447.06;;;14.50;19.00
75409;BME280;63979;55.644;37.734;2023-03-19T06:04:31;101449.53;;;15.56;18.33
75409;BME280;63979;55.644;37.734;2023-03-19T06:09:32;101430.69;;;15.84;18.44
75409;BME280;63979;55.644;37.734;2023-03-19T06:14:33;101426.53;;;15.93;17.83
75409;BME280;63979;55.644;37.734;2023-03-19T06:19:35;101425.72;;;17.37;17.50
75409;BME280;63979;55.644;37.734;2023-03-19T06:24:36;101413.34;;;17.58;16.13
75409;BME280;63979;55.644;37.734;2023-03-19T06:29:37;101398.16;;;18.65;15.97
75409;BME280;63979;55.644;37.734;2023-03-19T06:34:38;101406.16;;;19.47;14.75
75409;BME280;63979;55.644;37.734;2023-03-19T06:39:39;101372.44;;;20.05;14.55
75409;BME280;63979;55.644;37.734;2023-03-19T06:44:40;101394.13;;;21.11;14.04
75409;BME280;63979;55.644;37.734;2023-03-19T06:49:41;101380.81;;;22.96;12.35
75409;BME280;63979;55.644;37.734;2023-03-19T06:54:42;101389.13;;;22.46;12.85
75409;BME280;63979;55.644;37.734;2023-03-19T06:59:50;101308.22;;;22.29;12.99
75409;BME280;63979;55.644;37.734;2023-03-19T07:04:52;101386.94;;;23.08;12.11
75409;BME280;63979;55.644;37.734;2023-03-19T07:09:53;101363.00;;;24.82;12.22
75409;BME280;63979;55.644;37.734;2023-03-19T07:14:55;101332.16;;;24.90;10.80
75409;BME280;63979;55.644;37.734;2023-03-19T07:19:56;101383.41;;;25.48;10.83
75409;BME280;63979;55.644;37.734;2023-03-19T07:24:58;101373.19;;;27.39;9.81
75409;BME280;63979;55.644;37.734;2023-03-19T07:29:59;101361.78;;;26.21;9.96
75409;BME280;63979;55.644;37.734;2023-03-19T07:35:00;101333.19;;;26.97;10.14
75409;BME280;63979;55.644;37.734;2023-03-19T07:40:01;101367.06;;;28.07;9.35
75409;BME280;63979;55.644;37.734;2023-03-19T07:45:05;101367.03;;;28.83;9.32
75409;BME280;63979;55.644;37.734;2023-03-19T07:50:07;101369.59;;;27.46;9.75
75409;BME280;63979;55.644;37.734;2023-03-19T07:55:09;101371.25;;;27.63;9.79
75409;BME280;63979;55.644;37.734;2023-03-19T08:00:10;101366.25;;;29.27;9.11
75409;BME280;63979;55.644;37.734;2023-03-19T08:05:12;101366.72;;;29.45;8.42
75409;BME280;63979;55.644;37.734;2023-03-19T08:10:14;101311.03;;;28.62;9.04
75409;BME280;63979;55.644;37.734;2023-03-19T08:15:15;101355.00;;;29.14;8.54
75409;BME280;63979;55.644;37.734;2023-03-19T08:20:16;101330.00;;;27.80;9.14
75409;BME280;63979;55.644;37.734;2023-03-19T08:25:17;101341.25;;;29.43;8.45
75409;BME280;63979;55.644;37.734;2023-03-19T08:30:22;101338.31;;;29.74;8.06
75409;BME280;63979;55.644;37.734;2023-03-19T08:35:29;101331.09;;;28.24;9.06
75409;BME280;63979;55.644;37.734;2023-03-19T08:40:30;101324.97;;;29.27;9.05
75409;BME280;63979;55.644;37.734;2023-03-19T08:45:31;101308.94;;;29.81;8.50
75409;BME280;63979;55.644;37.734;2023-03-19T08:50:32;101304.66;;;29.58;8.18
75409;BME280;63979;55.644;37.734;2023-03-19T08:55:33;101289.47;;;31.31;8.27
75409;BME280;63979;55.644;37.734;2023-03-19T09:00:34;101265.94;;;31.42;7.73
75409;BME280;63979;55.644;37.734;2023-03-19T09:05:35;101272.69;;;31.26;7.83
75409;BME280;63979;55.644;37.734;2023-03-19T09:10:37;101278.22;;;31.32;8.14
75409;BME280;63979;55.644;37.734;2023-03-19T09:15:38;101272.78;;;29.34;8.55
75409;BME280;63979;55.644;37.734;2023-03-19T09:20:39;101258.59;;;27.57;9.86
75409;BME280;63979;55.644;37.734;2023-03-19T09:25:40;101249.09;;;26.89;10.49
75409;BME280;63979;55.644;37.734;2023-03-19T09:30:41;101237.72;;;25.30;11.19
75409;BME280;63979;55.644;37.734;2023-03-19T09:35:43;101191.03;;;26.06;11.13
75409;BME280;63979;55.644;37.734;2023-03-19T09:41:13;101217.34;;;26.23;10.69
75409;BME280;63979;55.644;37.734;2023-03-19T09:46:25;101219.63;;;26.99;10.25
75409;BME280;63979;55.644;37.734;2023-03-19T09:51:35;101179.94;;;26.71;10.41
75409;BME280;63979;55.644;37.734;2023-03-19T09:56:41;101216.22;;;28.05;9.82
75409;BME280;63979;55.644;37.734;2023-03-19T10:01:48;101205.91;;;26.91;10.23
75409;BME280;63979;55.644;37.734;2023-03-19T10:17:55;101192.56;;;29.15;8.82
75409;BME280;63979;55.644;37.734;2023-03-19T10:28:31;101189.41;;;30.75;8.60
75409;BME280;63979;55.644;37.734;2023-03-19T10:33:42;101182.34;;;31.07;7.93
75409;BME280;63979;55.644;37.734;2023-03-19T10:38:44;101181.47;;;28.79;8.93
75409;BME280;63979;55.644;37.734;2023-03-19T10:43:53;101131.47;;;29.20;9.71
75409;BME280;63979;55.644;37.734;2023-03-19T10:48:56;101164.56;;;30.12;9.13
75409;BME280;63979;55.644;37.734;2023-03-19T10:53:59;101123.53;;;30.93;8.03
75409;BME280;63979;55.644;37.734;2023-03-19T10:59:09;101148.28;;;30.86;8.11
75409;BME280;63979;55.644;37.734;2023-03-19T11:04:23;101127.72;;;29.28;8.80
75409;BME280;63979;55.644;37.734;2023-03-19T11:09:55;101162.22;;;29.09;9.72
75409;BME280;63979;55.644;37.734;2023-03-19T11:14:57;101148.13;;;30.94;8.83
75409;BME280;63979;55.644;37.734;2023-03-19T11:19:58;101140.47;;;29.14;9.43
75409;BME280;63979;55.644;37.734;2023-03-19T11:25:24;101134.94;;;26.65;11.07
75409;BME280;63979;55.644;37.734;2023-03-19T11:30:35;101082.38;;;27.01;10.61
75409;BME280;63979;55.644;37.734;2023-03-19T11:35:41;101114.69;;;29.36;9.52
75409;BME280;63979;55.644;37.734;2023-03-19T11:52:19;101106.72;;;27.50;11.03
75409;BME280;63979;55.644;37.734;2023-03-19T12:08:38;101050.19;;;26.64;11.46
75409;BME280;63979;55.644;37.734;2023-03-19T12:14:12;101077.50;;;27.57;10.58
75409;BME280;63979;55.644;37.734;2023-03-19T12:30:00;101051.59;;;31.01;9.20
75409;BME280;63979;55.644;37.734;2023-03-19T12:35:10;101036.41;;;31.38;8.45
75409;BME280;63979;55.644;37.734;2023-03-19T12:40:31;101033.94;;;30.82;9.26
75409;BME280;63979;55.644;37.734;2023-03-19T12:45:53;101018.16;;;28.38;10.51
75409;BME280;63979;55.644;37.734;2023-03-19T12:50:58;101009.38;;;27.60;10.87
75409;BME280;63979;55.644;37.734;2023-03-19T12:56:18;100972.53;;;24.22;13.23
75409;BME280;63979;55.644;37.734;2023-03-19T13:01:24;100960.59;;;26.10;12.01
75409;BME280;63979;55.644;37.734;2023-03-19T13:06:34;100988.69;;;27.20;11.43
75409;BME280;63979;55.644;37.734;2023-03-19T13:22:10;100898.25;;;20.71;16.00
75409;BME280;63979;55.644;37.734;2023-03-19T13:27:25;100955.81;;;20.55;16.48
75409;BME280;63979;55.644;37.734;2023-03-19T13:37:46;100952.50;;;20.81;16.06
75409;BME280;63979;55.644;37.734;2023-03-19T13:42:55;100949.22;;;21.06;16.18
75409;BME280;63979;55.644;37.734;2023-03-19T13:47:57;100936.41;;;20.10;16.21
75409;BME280;63979;55.644;37.734;2023-03-19T13:58:45;100928.56;;;16.97;19.61
75409;BME280;63979;55.644;37.734;2023-03-19T14:03:59;100933.94;;;16.62;19.96
75409;BME280;63979;55.644;37.734;2023-03-19T14:09:03;100922.66;;;16.09;21.13
75409;BME280;63979;55.644;37.734;2023-03-19T14:14:06;100932.34;;;15.37;21.89
75409;BME280;63979;55.644;37.734;2023-03-19T14:19:16;100926.56;;;13.70;23.45
75409;BME280;63979;55.644;37.734;2023-03-19T14:24:28;100905.69;;;12.44;25.11
75409;BME280;63979;55.644;37.734;2023-03-19T14:29:33;100852.09;;;10.36;28.08
75409;BME280;63979;55.644;37.734;2023-03-19T14:34:38;100898.50;;;10.34;28.01
75409;BME280;63979;55.644;37.734;2023-03-19T14:39:42;100896.66;;;9.43;30.86
75409;BME280;63979;55.644;37.734;2023-03-19T14:45:07;100889.44;;;8.67;32.49
75409;BME280;63979;55.644;37.734;2023-03-19T14:55:33;100818.69;;;7.35;33.58
75409;BME280;63979;55.644;37.734;2023-03-19T15:00:44;100867.81;;;6.76;35.90
75409;BME280;63979;55.644;37.734;2023-03-19T15:05:46;100890.16;;;6.44;36.71
75409;BME280;63979;55.644;37.734;2023-03-19T15:21:29;100871.91;;;6.09;37.48
75409;BME280;63979;55.644;37.734;2023-03-19T15:26:35;100892.31;;;6.07;38.27
75409;BME280;63979;55.644;37.734;2023-03-19T15:31:47;100896.19;;;5.97;38.08
75409;BME280;63979;55.644;37.734;2023-03-19T15:37:01;100887.06;;;5.48;40.44
75409;BME280;63979;55.644;37.734;2023-03-19T15:42:04;100894.97;;;5.21;41.79
75409;BME280;63979;55.644;37.734;2023-03-19T15:47:11;100875.53;;;4.91;40.48
75409;BME280;63979;55.644;37.734;2023-03-19T15:52:15;100892.38;;;4.89;42.50
75409;BME280;63979;55.644;37.734;2023-03-19T15:57:18;100888.34;;;4.74;43.60
75409;BME280;63979;55.644;37.734;2023-03-19T16:02:30;100851.13;;;4.49;43.90
75409;BME280;63979;55.644;37.734;2023-03-19T16:07:41;100870.34;;;4.56;44.60
75409;BME280;63979;55.644;37.734;2023-03-19T16:12:48;100823.72;;;4.21;44.74
75409;BME280;63979;55.644;37.734;2023-03-19T16:17:49;100817.78;;;4.11;44.86
75409;BME280;63979;55.644;37.734;2023-03-19T16:22:54;100844.06;;;4.17;44.95
75409;BME280;63979;55.644;37.734;2023-03-19T16:27:58;100873.06;;;4.20;45.70
75409;BME280;63979;55.644;37.734;2023-03-19T16:33:04;100871.81;;;3.99;46.30
75409;BME280;63979;55.644;37.734;2023-03-19T16:38:24;100880.63;;;3.98;46.83
75409;BME280;63979;55.644;37.734;2023-03-19T16:43:31;100866.91;;;3.84;46.73
75409;BME280;63979;55.644;37.734;2023-03-19T16:48:33;100874.88;;;3.83;46.99
75409;BME280;63979;55.644;37.734;2023-03-19T16:53:34;100869.78;;;3.73;46.72
75409;BME280;63979;55.644;37.734;2023-03-19T16:58:37;100870.19;;;3.57;47.11
75409;BME280;63979;55.644;37.734;2023-03-19T17:03:43;100811.28;;;3.18;48.34
75409;BME280;63979;55.644;37.734;2023-03-19T17:08:44;100866.00;;;3.47;47.51
75409;BME280;63979;55.644;37.734;2023-03-19T17:13:47;100873.16;;;3.41;48.31
75409;BME280;63979;55.644;37.734;2023-03-19T17:18:48;100789.16;;;2.85;48.41
75409;BME280;63979;55.644;37.734;2023-03-19T17:23:50;100857.69;;;3.26;48.65
75409;BME280;63979;55.644;37.734;2023-03-19T17:28:51;100849.75;;;3.28;48.26
75409;BME280;63979;55.644;37.734;2023-03-19T17:34:05;100856.59;;;3.35;48.29
75409;BME280;63979;55.644;37.734;2023-03-19T17:39:10;100869.81;;;3.35;48.33
75409;BME280;63979;55.644;37.734;2023-03-19T17:44:11;100844.84;;;3.09;49.01
75409;BME280;63979;55.644;37.734;2023-03-19T17:49:26;100870.06;;;3.24;49.06
75409;BME280;63979;55.644;37.734;2023-03-19T17:54:33;100871.19;;;3.12;49.27
75409;BME280;63979;55.644;37.734;2023-03-19T17:59:34;100831.19;;;2.91;49.24
75409;BME280;63979;55.644;37.734;2023-03-19T18:04:35;100843.44;;;2.93;49.58
75409;BME280;63979;55.644;37.734;2023-03-19T18:09:36;100842.88;;;2.77;50.21
75409;BME280;63979;55.644;37.734;2023-03-19T18:14:37;100826.47;;;2.65;50.77
75409;BME280;63979;55.644;37.734;2023-03-19T18:19:38;100823.16;;;2.55;50.61
75409;BME280;63979;55.644;37.734;2023-03-19T18:24:40;100850.19;;;2.65;50.69
75409;BME280;63979;55.644;37.734;2023-03-19T18:29:41;100816.47;;;2.36;51.26
75409;BME280;63979;55.644;37.734;2023-03-19T18:34:42;100849.50;;;2.55;52.08
75409;BME280;63979;55.644;37.734;2023-03-19T18:39:43;100809.00;;;2.14;52.08
75409;BME280;63979;55.644;37.734;2023-03-19T18:44:44;100834.31;;;2.22;52.16
75409;BME280;63979;55.644;37.734;2023-03-19T18:49:45;100847.44;;;2.25;53.00
75409;BME280;63979;55.644;37.734;2023-03-19T18:54:46;100761.63;;;1.64;53.45
75409;BME280;63979;55.644;37.734;2023-03-19T18:59:47;100853.09;;;2.02;54.32
75409;BME280;63979;55.644;37.734;2023-03-19T19:04:48;100855.03;;;1.91;54.47
75409;BME280;63979;55.644;37.734;2023-03-19T19:09:49;100840.34;;;1.77;54.37
75409;BME280;63979;55.644;37.734;2023-03-19T19:14:53;100723.06;;;1.09;54.77
75409;BME280;63979;55.644;37.734;2023-03-19T19:19:54;100840.38;;;1.76;55.53
75409;BME280;63979;55.644;37.734;2023-03-19T19:24:55;100830.75;;;1.75;55.03
75409;BME280;63979;55.644;37.734;2023-03-19T19:29:56;100831.66;;;1.71;54.93
75409;BME280;63979;55.644;37.734;2023-03-19T19:34:58;100819.66;;;1.54;56.75
75409;BME280;63979;55.644;37.734;2023-03-19T19:39:58;100825.16;;;1.41;57.33
75409;BME280;63979;55.644;37.734;2023-03-19T19:44:59;100821.72;;;1.34;57.30
75409;BME280;63979;55.644;37.734;2023-03-19T19:50:02;100833.47;;;1.10;58.47
75409;BME280;63979;55.644;37.734;2023-03-19T19:55:04;100828.41;;;0.95;59.32
75409;BME280;63979;55.644;37.734;2023-03-19T20:00:23;100823.34;;;0.81;60.23
75409;BME280;63979;55.644;37.734;2023-03-19T20:05:32;100824.34;;;0.68;60.31
75409;BME280;63979;55.644;37.734;2023-03-19T20:10:33;100822.69;;;0.61;60.45
75409;BME280;63979;55.644;37.734;2023-03-19T20:15:34;100806.22;;;0.48;61.23
75409;BME280;63979;55.644;37.734;2023-03-19T20:20:35;100766.28;;;0.20;64.03
75409;BME280;63979;55.644;37.734;2023-03-19T20:25:36;100817.75;;;0.34;64.89
75409;BME280;63979;55.644;37.734;2023-03-19T20:30:38;100743.22;;;-0.33;65.95
75409;BME280;63979;55.644;37.734;2023-03-19T20:35:41;100810.09;;;0.15;65.13
75409;BME280;63979;55.644;37.734;2023-03-19T20:40:54;100812.72;;;0.14;65.14
75409;BME280;63979;55.644;37.734;2023-03-19T20:46:00;100791.94;;;-0.08;66.19
75409;BME280;63979;55.644;37.734;2023-03-19T20:51:03;100808.53;;;-0.07;66.72
75409;BME280;63979;55.644;37.734;2023-03-19T20:56:12;100798.13;;;-0.16;66.20
75409;BME280;63979;55.644;37.734;2023-03-19T21:01:15;100808.63;;;-0.15;67.03
75409;BME280;63979;55.644;37.734;2023-03-19T21:06:20;100819.94;;;-0.11;67.87
75409;BME280;63979;55.644;37.734;2023-03-19T21:11:45;100796.50;;;-0.26;67.69
75409;BME280;63979;55.644;37.734;2023-03-19T21:16:47;100764.31;;;-0.47;66.26
75409;BME280;63979;55.644;37.734;2023-03-19T21:21:47;100806.91;;;-0.17;66.31
75409;BME280;63979;55.644;37.734;2023-03-19T21:26:49;100795.56;;;-0.22;65.59
75409;BME280;63979;55.644;37.734;2023-03-19T21:31:51;100776.38;;;-0.26;65.14
75409;BME280;63979;55.644;37.734;2023-03-19T21:36:53;100774.66;;;-0.30;65.21
75409;BME280;63979;55.644;37.734;2023-03-19T21:41:54;100792.09;;;-0.24;65.18
75409;BME280;63979;55.644;37.734;2023-03-19T21:46:56;100787.81;;;-0.38;65.82
75409;BME280;63979;55.644;37.734;2023-03-19T21:51:57;100782.63;;;-0.44;65.80
75409;BME280;63979;55.644;37.734;2023-03-19T21:56:58;100788.84;;;-0.52;66.32
75409;BME280;63979;55.644;37.734;2023-03-19T22:01:59;100791.47;;;-0.54;66.34
75409;BME280;63979;55.644;37.734;2023-03-19T22:07:01;100785.47;;;-0.68;67.71
75409;BME280;63979;55.644;37.734;2023-03-19T22:12:01;100790.75;;;-0.77;68.29
75409;BME280;63979;55.644;37.734;2023-03-19T22:17:04;100772.44;;;-0.80;70.58
75409;BME280;63979;55.644;37.734;2023-03-19T22:22:09;100742.84;;;-0.96;71.40
75409;BME280;63979;55.644;37.734;2023-03-19T22:27:15;100791.59;;;-0.72;70.14
75409;BME280;63979;55.644;37.734;2023-03-19T22:32:17;100772.53;;;-0.91;68.73
75409;BME280;63979;55.644;37.734;2023-03-19T22:37:28;100788.19;;;-0.83;69.08
75409;BME280;63979;55.644;37.734;2023-03-19T22:42:29;100759.50;;;-1.02;69.19
75409;BME280;63979;55.644;37.734;2023-03-19T22:47:34;100768.22;;;-1.01;69.37
75409;BME280;63979;55.644;37.734;2023-03-19T22:52:36;100715.06;;;-1.20;68.83
75409;BME280;63979;55.644;37.734;2023-03-19T22:57:37;100761.22;;;-1.01;68.91
75409;BME280;63979;55.644;37.734;2023-03-19T23:02:39;100756.88;;;-1.02;69.80
75409;BME280;63979;55.644;37.734;2023-03-19T23:07:41;100743.03;;;-1.25;70.50
75409;BME280;63979;55.644;37.734;2023-03-19T23:12:41;100762.19;;;-1.17;70.00
75409;BME280;63979;55.644;37.734;2023-03-19T23:17:43;100747.38;;;-1.21;69.89
75409;BME280;63979;55.644;37.734;2023-03-19T23:22:45;100776.16;;;-1.18;69.68
75409;BME280;63979;55.644;37.734;2023-03-19T23:27:47;100754.34;;;-1.20;69.15
75409;BME280;63979;55.644;37.734;2023-03-19T23:32:48;100747.47;;;-1.35;69.28
75409;BME280;63979;55.644;37.734;2023-03-19T23:37:50;100768.41;;;-1.35;69.80
75409;BME280;63979;55.644;37.734;2023-03-19T23:42:54;100759.69;;;-1.40;71.24
75409;BME280;63979;55.644;37.734;2023-03-19T23:47:57;100756.22;;;-1.45;71.96
75409;BME280;63979;55.644;37.734;2023-03-19T23:52:59;100691.06;;;-2.01;72.16
75409;BME280;63979;55.644;37.734;2023-03-19T23:58:01;100675.38;;;-2.07;72.63
